PWSweather.com
Personal Weather Stations
Station Observations
MADWEATHER
MadeiraPT

MadeiraPT

Lat: 32.735, Lon: -17.194

Elevation: 1063

Station Type: Davis VantagePro2

Latest ConditionsUpdated 5:50:01 PM GMT Friday, Dec 2, 2016
Currently Today's Max Today's Min Today's Average
Temperature 64.4°F18.0°C 66.0°F18.9°C 58.9°F14.9°C 63.4°F17.4°C
Dew Point 63.5°F17.5°C 65.4°F18.6°C 56.8°F13.8°C 62.1°F16.7°C
Winds 4.4 mph S7.1 kmh S 16.9 mph SE27.2 kmh SE - 7.0 mph 11.3 kmh
Wind Gusts 7.0 mph11.3 kmh 24.0 mph38.6 kmh - -
Humidity 97% 98% 85% 95%
Pressure 29.72 in1006.4 mb 29.94 in1013.9 mb 29.72 in1006.4 mb -
Precipitation - 1.12 in28.4 mm - -
Hour Temp Dew Point Humidity Winds Wind Gusts Pressure Precip Precip Rate Daily Precip Total
05:50 PM 64.4°F18.0°C 63.5°F17.5°C 97% 4.4 mph S7.1 kmh S 7.0 mph11.3 kmh 29.72 in1006.4 mb - 0.00 in0.0 mm 1.12 in28.4 mm
05:40 PM 64.5°F18.1°C 63.6°F17.6°C 97% 7.1 mph S11.4 kmh S 10.0 mph16.1 kmh 29.72 in1006.4 mb - 0.00 in0.0 mm 1.12 in28.4 mm
05:30 PM 64.5°F18.1°C 63.6°F17.6°C 97% 6.6 mph S10.6 kmh S 11.0 mph17.7 kmh 29.72 in1006.4 mb - 0.00 in0.0 mm 1.12 in28.4 mm
05:20 PM 64.6°F18.1°C 63.7°F17.6°C 97% 5.3 mph S8.5 kmh S 10.0 mph16.1 kmh 29.73 in1006.8 mb - 0.00 in0.0 mm 1.12 in28.4 mm
05:10 PM 64.6°F18.1°C 63.7°F17.6°C 97% 5.8 mph S9.3 kmh S 13.0 mph20.9 kmh 29.72 in1006.4 mb - 0.00 in0.0 mm 1.12 in28.4 mm
05:00 PM 64.6°F18.1°C 64.0°F17.8°C 98% 4.0 mph S6.4 kmh S 6.0 mph9.7 kmh 29.73 in1006.8 mb - 0.00 in0.0 mm 1.12 in28.4 mm
04:50 PM 64.5°F18.1°C 63.6°F17.6°C 97% 7.5 mph S12.1 kmh S 12.0 mph19.3 kmh 29.73 in1006.8 mb - 0.00 in0.0 mm 1.12 in28.4 mm
04:40 PM 64.5°F18.1°C 63.6°F17.6°C 97% 5.9 mph S9.5 kmh S 9.0 mph14.5 kmh 29.73 in1006.8 mb - 0.00 in0.0 mm 1.12 in28.4 mm
04:30 PM 64.6°F18.1°C 63.7°F17.6°C 97% 2.4 mph S3.9 kmh S 7.0 mph11.3 kmh 29.73 in1006.8 mb - 0.00 in0.0 mm 1.12 in28.4 mm
04:20 PM 64.8°F18.2°C 64.2°F17.9°C 98% 4.1 mph S6.6 kmh S 9.0 mph14.5 kmh 29.73 in1006.8 mb - 0.00 in0.0 mm 1.12 in28.4 mm
04:10 PM 64.8°F18.2°C 64.0°F17.8°C 97% 4.4 mph S7.1 kmh S 6.0 mph9.7 kmh 29.73 in1006.8 mb - 0.00 in0.0 mm 1.12 in28.4 mm
04:00 PM 65.2°F18.4°C 64.3°F17.9°C 97% 4.7 mph SSW7.6 kmh SSW 9.0 mph14.5 kmh 29.74 in1007.1 mb - 0.00 in0.0 mm 1.12 in28.4 mm
03:50 PM 65.1°F18.4°C 64.3°F17.9°C 97% 7.7 mph S12.4 kmh S 12.0 mph19.3 kmh 29.74 in1007.1 mb - 0.00 in0.0 mm 1.12 in28.4 mm
03:40 PM 65.2°F18.4°C 64.3°F17.9°C 97% 9.0 mph S14.5 kmh S 12.0 mph19.3 kmh 29.74 in1007.1 mb - 0.00 in0.0 mm 1.12 in28.4 mm
03:30 PM 65.4°F18.6°C 64.5°F18.1°C 97% 6.9 mph SSW11.1 kmh SSW 10.0 mph16.1 kmh 29.74 in1007.1 mb - 0.00 in0.0 mm 1.12 in28.4 mm
03:20 PM 65.2°F18.4°C 64.3°F17.9°C 97% 10.1 mph S16.3 kmh S 11.0 mph17.7 kmh 29.73 in1006.8 mb - 0.00 in0.0 mm 1.12 in28.4 mm
03:10 PM 65.3°F18.5°C 64.4°F18.0°C 97% 2.1 mph SSW3.4 kmh SSW 6.0 mph9.7 kmh 29.74 in1007.1 mb - 0.00 in0.0 mm 1.12 in28.4 mm
03:00 PM 65.9°F18.8°C 65.3°F18.5°C 98% 7.5 mph SSW12.1 kmh SSW 10.0 mph16.1 kmh 29.75 in1007.5 mb - 0.00 in0.0 mm 1.12 in28.4 mm
02:50 PM 65.4°F18.6°C 64.6°F18.1°C 97% 6.8 mph SSW10.9 kmh SSW 9.0 mph14.5 kmh 29.75 in1007.5 mb - 0.00 in0.0 mm 1.12 in28.4 mm
02:40 PM 66.0°F18.9°C 65.4°F18.6°C 98% 6.0 mph SSW9.7 kmh SSW 12.0 mph19.3 kmh 29.76 in1007.8 mb - 0.00 in0.0 mm 1.12 in28.4 mm
02:30 PM 65.0°F18.3°C 64.4°F18.0°C 98% 7.1 mph SSW11.4 kmh SSW 9.0 mph14.5 kmh 29.75 in1007.5 mb - 0.00 in0.0 mm 1.12 in28.4 mm
02:20 PM 64.9°F18.3°C 64.3°F17.9°C 98% 7.0 mph SW11.3 kmh SW 11.0 mph17.7 kmh 29.75 in1007.5 mb - 0.00 in0.0 mm 1.12 in28.4 mm
02:10 PM 64.7°F18.2°C 64.2°F17.9°C 98% 7.5 mph SSW12.1 kmh SSW 15.0 mph24.1 kmh 29.76 in1007.8 mb - 0.00 in0.0 mm 1.12 in28.4 mm
02:00 PM 64.6°F18.1°C 64.0°F17.8°C 98% 6.3 mph SW10.1 kmh SW 10.0 mph16.1 kmh 29.77 in1008.1 mb - 0.00 in0.0 mm 1.12 in28.4 mm
01:50 PM 64.8°F18.2°C 64.2°F17.9°C 98% 7.4 mph SW11.9 kmh SW 13.0 mph20.9 kmh 29.77 in1008.1 mb - 0.00 in0.0 mm 1.12 in28.4 mm
01:40 PM 64.8°F18.2°C 64.2°F17.9°C 98% 9.9 mph S15.9 kmh S 13.0 mph20.9 kmh 29.77 in1008.1 mb - 0.00 in0.0 mm 1.12 in28.4 mm
01:30 PM 65.0°F18.3°C 64.4°F18.0°C 98% 9.2 mph SW14.8 kmh SW 12.0 mph19.3 kmh 29.77 in1008.1 mb - 0.00 in0.0 mm 1.12 in28.4 mm
01:20 PM 65.2°F18.4°C 64.6°F18.1°C 98% 7.5 mph SW12.1 kmh SW 11.0 mph17.7 kmh 29.77 in1008.1 mb - 0.00 in0.0 mm 1.12 in28.4 mm
01:10 PM 65.2°F18.4°C 64.6°F18.1°C 98% 10.4 mph S16.7 kmh S 13.0 mph20.9 kmh 29.77 in1008.1 mb - 0.00 in0.0 mm 1.12 in28.4 mm
01:00 PM 65.1°F18.4°C 64.5°F18.1°C 98% 5.9 mph SW9.5 kmh SW 9.0 mph14.5 kmh 29.79 in1008.8 mb - 0.00 in0.0 mm 1.12 in28.4 mm
12:50 PM 65.3°F18.5°C 64.8°F18.2°C 98% 5.7 mph SW9.2 kmh SW 12.0 mph19.3 kmh 29.79 in1008.8 mb - 0.00 in0.0 mm 1.12 in28.4 mm
12:40 PM 65.6°F18.7°C 65.0°F18.3°C 98% 9.5 mph SW15.3 kmh SW 13.0 mph20.9 kmh 29.81 in1009.5 mb - 0.00 in0.0 mm 1.12 in28.4 mm
12:30 PM 65.3°F18.5°C 64.7°F18.2°C 98% 3.5 mph SW5.6 kmh SW 6.0 mph9.7 kmh 29.81 in1009.5 mb - 0.00 in0.0 mm 1.12 in28.4 mm
12:20 PM 65.4°F18.6°C 64.8°F18.2°C 98% 5.5 mph SSW8.9 kmh SSW 9.0 mph14.5 kmh 29.82 in1009.8 mb - 0.00 in0.0 mm 1.12 in28.4 mm
12:10 PM 65.3°F18.5°C 64.7°F18.2°C 98% 7.9 mph SSW12.7 kmh SSW 11.0 mph17.7 kmh 29.82 in1009.8 mb - 0.00 in0.0 mm 1.12 in28.4 mm
12:00 PM 65.5°F18.6°C 64.9°F18.3°C 98% 6.4 mph SSW10.3 kmh SSW 10.0 mph16.1 kmh 29.82 in1009.8 mb - 0.00 in0.0 mm 1.12 in28.4 mm
11:50 AM 65.5°F18.6°C 64.9°F18.3°C 98% 4.7 mph SW7.6 kmh SW 10.0 mph16.1 kmh 29.82 in1009.8 mb - 0.00 in0.0 mm 1.12 in28.4 mm
11:40 AM 65.4°F18.6°C 64.8°F18.2°C 98% 6.7 mph SW10.8 kmh SW 10.0 mph16.1 kmh 29.83 in1010.2 mb - 0.00 in0.0 mm 1.12 in28.4 mm
11:30 AM 65.1°F18.4°C 64.2°F17.9°C 97% 8.2 mph SW13.2 kmh SW 12.0 mph19.3 kmh 29.82 in1009.8 mb - 0.00 in0.0 mm 1.12 in28.4 mm
11:20 AM 65.2°F18.4°C 64.7°F18.2°C 98% 4.5 mph S7.2 kmh S 7.0 mph11.3 kmh 29.83 in1010.2 mb - 0.00 in0.0 mm 1.12 in28.4 mm
11:10 AM 65.2°F18.4°C 64.3°F17.9°C 97% 9.3 mph S15.0 kmh S 13.0 mph20.9 kmh 29.83 in1010.2 mb - 0.00 in0.0 mm 1.12 in28.4 mm
11:00 AM 65.2°F18.4°C 64.3°F17.9°C 97% 6.5 mph S10.5 kmh S 12.0 mph19.3 kmh 29.84 in1010.5 mb - 0.00 in0.0 mm 1.12 in28.4 mm
10:50 AM 65.2°F18.4°C 64.3°F17.9°C 97% 4.1 mph S6.6 kmh S 5.0 mph8.0 kmh 29.84 in1010.5 mb - 0.00 in0.0 mm 1.12 in28.4 mm
10:40 AM 65.2°F18.4°C 64.3°F17.9°C 97% 5.9 mph S9.5 kmh S 11.0 mph17.7 kmh 29.84 in1010.5 mb - 0.00 in0.0 mm 1.12 in28.4 mm
10:30 AM 65.1°F18.4°C 64.3°F17.9°C 97% 4.4 mph S7.1 kmh S 5.0 mph8.0 kmh 29.85 in1010.8 mb - 0.00 in0.0 mm 1.12 in28.4 mm
10:20 AM 65.1°F18.4°C 64.2°F17.9°C 97% 5.0 mph S8.0 kmh S 7.0 mph11.3 kmh 29.85 in1010.8 mb - 0.00 in0.0 mm 1.12 in28.4 mm
10:10 AM 65.0°F18.3°C 64.1°F17.8°C 97% 4.6 mph S7.4 kmh S 7.0 mph11.3 kmh 29.84 in1010.5 mb - 0.00 in0.0 mm 1.12 in28.4 mm
10:00 AM 65.0°F18.3°C 64.1°F17.8°C 97% 6.9 mph S11.1 kmh S 12.0 mph19.3 kmh 29.84 in1010.5 mb - 0.00 in0.0 mm 1.12 in28.4 mm
09:50 AM 65.0°F18.3°C 64.1°F17.8°C 97% 3.9 mph SSW6.3 kmh SSW 7.0 mph11.3 kmh 29.84 in1010.5 mb - 0.00 in0.0 mm 1.12 in28.4 mm
09:40 AM 64.9°F18.3°C 64.1°F17.8°C 97% 5.9 mph SSW9.5 kmh SSW 10.0 mph16.1 kmh 29.83 in1010.2 mb - 0.03 in0.8 mm 1.12 in28.4 mm
09:30 AM 65.0°F18.3°C 63.8°F17.7°C 96% 8.5 mph SW13.7 kmh SW 13.0 mph20.9 kmh 29.83 in1010.2 mb - 0.01 in0.3 mm 1.09 in27.7 mm
09:20 AM 64.9°F18.3°C 63.7°F17.6°C 96% 5.9 mph WSW9.5 kmh WSW 10.0 mph16.1 kmh 29.83 in1010.2 mb - 0.00 in0.0 mm 1.09 in27.7 mm
09:10 AM 64.7°F18.2°C 63.5°F17.5°C 96% 7.7 mph SW12.4 kmh SW 12.0 mph19.3 kmh 29.83 in1010.2 mb - 0.00 in0.0 mm 1.09 in27.7 mm
09:00 AM 64.4°F18.0°C 63.2°F17.3°C 96% 5.2 mph WSW8.4 kmh WSW 10.0 mph16.1 kmh 29.83 in1010.2 mb - 0.02 in0.5 mm 1.09 in27.7 mm
08:50 AM 64.5°F18.1°C 63.3°F17.4°C 96% 5.6 mph SSW9.0 kmh SSW 11.0 mph17.7 kmh 29.82 in1009.8 mb - 0.00 in0.0 mm 1.07 in27.2 mm
08:40 AM 64.2°F17.9°C 63.1°F17.3°C 96% 3.8 mph S6.1 kmh S 9.0 mph14.5 kmh 29.82 in1009.8 mb - 0.00 in0.0 mm 1.07 in27.2 mm
08:30 AM 64.2°F17.9°C 63.0°F17.2°C 96% 0.7 mph S1.1 kmh S 1.0 mph1.6 kmh 29.82 in1009.8 mb - 0.00 in0.0 mm 1.07 in27.2 mm
08:20 AM 63.9°F17.7°C 63.0°F17.2°C 97% 2.0 mph SSE3.2 kmh SSE 5.0 mph8.0 kmh 29.82 in1009.8 mb - 0.00 in0.0 mm 1.07 in27.2 mm
08:10 AM 63.5°F17.5°C 62.3°F16.8°C 96% 2.2 mph SSE3.5 kmh SSE 4.0 mph6.4 kmh 29.82 in1009.8 mb - 0.00 in0.0 mm 1.07 in27.2 mm
08:00 AM 63.5°F17.5°C 62.3°F16.8°C 96% 3.6 mph S5.8 kmh S 9.0 mph14.5 kmh 29.83 in1010.2 mb - 0.00 in0.0 mm 1.07 in27.2 mm
07:50 AM 63.2°F17.3°C 62.3°F16.8°C 97% 7.4 mph S11.9 kmh S 12.0 mph19.3 kmh 29.83 in1010.2 mb - 0.00 in0.0 mm 1.07 in27.2 mm
07:40 AM 63.1°F17.3°C 61.9°F16.6°C 96% 7.6 mph SE12.2 kmh SE 13.0 mph20.9 kmh 29.81 in1009.5 mb - 0.00 in0.0 mm 1.07 in27.2 mm
07:30 AM 63.0°F17.2°C 62.1°F16.7°C 97% 1.6 mph SE2.6 kmh SE 4.0 mph6.4 kmh 29.80 in1009.1 mb - 0.00 in0.0 mm 1.07 in27.2 mm
07:20 AM 62.7°F17.1°C 61.8°F16.6°C 97% 0.5 mph SSE0.8 kmh SSE 4.0 mph6.4 kmh 29.81 in1009.5 mb - 0.00 in0.0 mm 1.07 in27.2 mm
07:10 AM 62.6°F17.0°C 61.7°F16.5°C 97% 3.9 mph SSE6.3 kmh SSE 4.0 mph6.4 kmh 29.82 in1009.8 mb - 0.00 in0.0 mm 1.07 in27.2 mm
07:00 AM 62.2°F16.8°C 61.3°F16.3°C 97% 3.0 mph SE4.8 kmh SE 11.0 mph17.7 kmh 29.82 in1009.8 mb - 0.00 in0.0 mm 1.07 in27.2 mm
06:50 AM 62.0°F16.7°C 61.1°F16.2°C 97% 5.6 mph SE9.0 kmh SE 9.0 mph14.5 kmh 29.83 in1010.2 mb - 0.00 in0.0 mm 1.07 in27.2 mm
06:40 AM 62.2°F16.8°C 61.1°F16.2°C 96% 2.9 mph SE4.7 kmh SE 4.0 mph6.4 kmh 29.83 in1010.2 mb - 0.00 in0.0 mm 1.07 in27.2 mm
06:30 AM 62.4°F16.9°C 61.5°F16.4°C 97% 8.2 mph SE13.2 kmh SE 11.0 mph17.7 kmh 29.82 in1009.8 mb - 0.00 in0.0 mm 1.07 in27.2 mm
06:20 AM 62.3°F16.8°C 61.4°F16.3°C 97% 8.6 mph SE13.8 kmh SE 12.0 mph19.3 kmh 29.82 in1009.8 mb - 0.00 in0.0 mm 1.07 in27.2 mm
06:10 AM 62.2°F16.8°C 61.1°F16.2°C 96% 6.4 mph SE10.3 kmh SE 9.0 mph14.5 kmh 29.82 in1009.8 mb - 0.02 in0.5 mm 1.07 in27.2 mm
06:00 AM 62.2°F16.8°C 61.0°F16.1°C 96% 7.4 mph SSE11.9 kmh SSE 10.0 mph16.1 kmh 29.82 in1009.8 mb - 0.02 in0.5 mm 1.06 in26.9 mm
05:50 AM 62.2°F16.8°C 61.0°F16.1°C 96% 8.0 mph SE12.9 kmh SE 11.0 mph17.7 kmh 29.82 in1009.8 mb - 0.01 in0.3 mm 1.05 in26.7 mm
05:40 AM 62.0°F16.7°C 61.1°F16.2°C 97% 12.8 mph SE20.6 kmh SE 15.0 mph24.1 kmh 29.82 in1009.8 mb - 0.02 in0.5 mm 1.05 in26.7 mm
05:30 AM 61.8°F16.6°C 60.6°F15.9°C 96% 8.6 mph SE13.8 kmh SE 10.0 mph16.1 kmh 29.83 in1010.2 mb - 0.02 in0.5 mm 1.02 in25.9 mm
05:20 AM 61.8°F16.6°C 60.7°F15.9°C 96% 10.3 mph ESE16.6 kmh ESE 13.0 mph20.9 kmh 29.83 in1010.2 mb - 0.02 in0.5 mm 1.01 in25.7 mm
05:10 AM 61.7°F16.5°C 60.5°F15.8°C 96% 10.6 mph SE17.1 kmh SE 13.0 mph20.9 kmh 29.84 in1010.5 mb - 0.05 in1.3 mm 0.99 in25.1 mm
05:00 AM 61.4°F16.3°C 60.5°F15.8°C 97% 8.0 mph SE12.9 kmh SE 15.0 mph24.1 kmh 29.87 in1011.5 mb - 0.04 in1.0 mm 0.95 in24.1 mm
04:50 AM 60.4°F15.8°C 59.5°F15.3°C 97% 4.4 mph SE7.1 kmh SE 10.0 mph16.1 kmh 29.86 in1011.2 mb - 0.02 in0.5 mm 0.91 in23.1 mm
04:40 AM 58.9°F14.9°C 57.5°F14.2°C 95% 5.0 mph SSE8.0 kmh SSE 6.0 mph9.7 kmh 29.86 in1011.2 mb - 0.04 in1.0 mm 0.90 in22.9 mm
04:30 AM 59.5°F15.3°C 58.1°F14.5°C 95% 1.0 mph W1.6 kmh W 5.0 mph8.0 kmh 29.88 in1011.9 mb - 0.07 in1.8 mm 0.86 in21.8 mm
04:20 AM 60.0°F15.6°C 58.6°F14.8°C 95% Calm Calm -- 29.88 in1011.9 mb - 0.09 in2.3 mm 0.80 in20.3 mm
04:10 AM 60.2°F15.7°C 58.8°F14.9°C 95% 6.5 mph W10.5 kmh W 9.0 mph14.5 kmh 29.89 in1012.2 mb - 0.17 in4.3 mm 0.71 in18.0 mm
04:00 AM 62.8°F17.1°C 61.6°F16.4°C 96% 12.6 mph W20.3 kmh W 20.0 mph32.2 kmh 29.90 in1012.5 mb - 0.07 in1.8 mm 0.55 in14.0 mm
03:50 AM 62.9°F17.2°C 61.7°F16.5°C 96% 9.0 mph S14.5 kmh S 14.0 mph22.5 kmh 29.88 in1011.9 mb - 0.07 in1.8 mm 0.49 in12.4 mm
03:40 AM 62.2°F16.8°C 60.7°F15.9°C 95% 12.2 mph SSE19.6 kmh SSE 18.0 mph29.0 kmh 29.87 in1011.5 mb - 0.07 in1.8 mm 0.43 in10.9 mm
03:30 AM 61.8°F16.6°C 60.4°F15.8°C 95% 5.0 mph SE8.0 kmh SE 13.0 mph20.9 kmh 29.88 in1011.9 mb - 0.13 in3.3 mm 0.37 in9.4 mm
03:20 AM 61.7°F16.5°C 60.0°F15.6°C 94% 4.6 mph SE7.4 kmh SE 6.0 mph9.7 kmh 29.89 in1012.2 mb - 0.09 in2.3 mm 0.24 in6.1 mm
03:10 AM 61.7°F16.5°C 59.9°F15.5°C 94% 8.2 mph SE13.2 kmh SE 11.0 mph17.7 kmh 29.89 in1012.2 mb - 0.02 in0.5 mm 0.15 in3.8 mm
03:00 AM 61.5°F16.4°C 59.2°F15.1°C 92% 7.6 mph SE12.2 kmh SE 12.0 mph19.3 kmh 29.89 in1012.2 mb - 0.06 in1.5 mm 0.13 in3.3 mm
02:50 AM 61.7°F16.5°C 59.0°F15.0°C 91% 6.4 mph ESE10.3 kmh ESE 9.0 mph14.5 kmh 29.89 in1012.2 mb - 0.02 in0.5 mm 0.07 in1.8 mm
02:40 AM 62.0°F16.7°C 59.0°F15.0°C 90% 11.8 mph ESE19.0 kmh ESE 16.0 mph25.7 kmh 29.89 in1012.2 mb - 0.02 in0.5 mm 0.05 in1.3 mm
02:30 AM 62.1°F16.7°C 58.8°F14.9°C 89% 16.9 mph SE27.2 kmh SE 24.0 mph38.6 kmh 29.90 in1012.5 mb - 0.00 in0.0 mm 0.03 in0.8 mm
02:20 AM 61.8°F16.6°C 58.2°F14.6°C 88% 7.8 mph ESE12.6 kmh ESE 11.0 mph17.7 kmh 29.89 in1012.2 mb - 0.00 in0.0 mm 0.03 in0.8 mm
02:10 AM 60.9°F16.1°C 57.6°F14.2°C 89% 9.3 mph E15.0 kmh E 16.0 mph25.7 kmh 29.90 in1012.5 mb - 0.00 in0.0 mm 0.03 in0.8 mm
02:00 AM 60.2°F15.7°C 57.2°F14.0°C 90% 11.7 mph SE18.8 kmh SE 14.0 mph22.5 kmh 29.91 in1012.9 mb - 0.00 in0.0 mm 0.03 in0.8 mm
01:50 AM 59.9°F15.5°C 56.9°F13.8°C 90% 10.8 mph E17.4 kmh E 19.0 mph30.6 kmh 29.91 in1012.9 mb - 0.00 in0.0 mm 0.03 in0.8 mm
01:40 AM 59.9°F15.5°C 57.0°F13.9°C 90% 9.8 mph E15.8 kmh E 11.0 mph17.7 kmh 29.91 in1012.9 mb - 0.01 in0.3 mm 0.03 in0.8 mm
01:30 AM 59.8°F15.4°C 56.9°F13.8°C 90% 11.6 mph ESE18.7 kmh ESE 16.0 mph25.7 kmh 29.92 in1013.2 mb - 0.00 in0.0 mm 0.02 in0.5 mm
01:20 AM 59.7°F15.4°C 56.8°F13.8°C 90% 12.9 mph E20.8 kmh E 18.0 mph29.0 kmh 29.92 in1013.2 mb - 0.00 in0.0 mm 0.02 in0.5 mm
01:10 AM 59.9°F15.5°C 57.0°F13.9°C 90% 11.1 mph E17.9 kmh E 13.0 mph20.9 kmh 29.93 in1013.5 mb - 0.01 in0.3 mm 0.02 in0.5 mm
01:00 AM 60.1°F15.6°C 57.5°F14.2°C 91% 11.4 mph ESE18.3 kmh ESE 16.0 mph25.7 kmh 29.93 in1013.5 mb - 0.00 in0.0 mm 0.02 in0.5 mm
12:50 AM 60.5°F15.8°C 57.5°F14.2°C 90% 8.2 mph E13.2 kmh E 12.0 mph19.3 kmh 29.93 in1013.5 mb - 0.00 in0.0 mm 0.02 in0.5 mm
12:40 AM 60.9°F16.1°C 57.7°F14.3°C 89% 13.4 mph E21.6 kmh E 18.0 mph29.0 kmh 29.93 in1013.5 mb - 0.01 in0.3 mm 0.02 in0.5 mm
12:30 AM 61.6°F16.4°C 57.7°F14.3°C 87% 11.3 mph ESE18.2 kmh ESE 15.0 mph24.1 kmh 29.93 in1013.5 mb - 0.01 in0.3 mm 0.01 in0.3 mm
12:20 AM 62.5°F16.9°C 58.3°F14.6°C 86% 13.5 mph ESE21.7 kmh ESE 19.0 mph30.6 kmh 29.93 in1013.5 mb - 0.00 in0.0 mm 0.00 in0.0 mm
12:10 AM 62.5°F16.9°C 58.3°F14.6°C 86% 13.3 mph SE21.4 kmh SE 17.0 mph27.4 kmh 29.94 in1013.9 mb - 0.00 in0.0 mm 0.00 in0.0 mm
12:00 AM 62.4°F16.9°C 57.8°F14.3°C 85% 11.8 mph ESE19.0 kmh ESE 15.0 mph24.1 kmh 29.94 in1013.9 mb - 0.00 in0.0 mm 0.00 in0.0 mm